EDT,Max TemperatureF,Mean TemperatureF,Min TemperatureF,Max Dew PointF,MeanDew PointF,Min DewpointF,Max Humidity, Mean Humidity, Min Humidity, Max Sea Level PressureIn, Mean Sea Level PressureIn, Min Sea Level PressureIn, Max VisibilityMiles, Mean VisibilityMiles, Min VisibilityMiles, Max Wind SpeedMPH, Mean Wind SpeedMPH, Max Gust SpeedMPH,PrecipitationIn, CloudCover, Events, WindDirDegrees
2010-10-1,73,63,53,70,59,46,94,86,72,29.76,29.68,29.54,10,7,0,29,18,39,0.00,6,Rain,360
2010-10-2,60,52,44,45,41,36,87,68,42,30.08,29.94,29.76,10,10,10,16,9,24,0.00,0,,354
2010-10-3,55,50,44,43,38,36,71,66,58,30.20,30.14,30.08,10,10,10,14,11,24,0.00,2,,46
2010-10-4,53,50,48,46,43,39,87,76,62,30.18,30.12,30.04,10,8,2,17,12,29,0.01,8,Rain,49
2010-10-5,55,52,50,54,50,46,94,89,82,30.05,30.02,29.98,10,5,1,17,11,26,0.02,8,Rain,58
2010-10-6,66,57,48,52,50,45,94,89,52,30.03,29.91,29.68,10,8,1,8,5,,0.00,7,Rain,88
2010-10-7,64,54,44,50,44,39,93,78,42,29.86,29.68,29.59,10,9,1,12,4,28,0.00,4,,268
2010-10-8,69,55,41,45,41,37,93,64,33,29.96,29.88,29.80,10,10,10,10,4,20,0.00,0,,276
2010-10-9,62,54,46,46,35,21,87,50,22,30.01,29.91,29.83,10,10,10,20,6,26,0.00,0,,325
2010-10-10,64,50,35,43,31,25,75,55,27,30.02,29.91,29.74,10,10,10,10,5,21,0.00,0,,306
2010-10-11,69,56,44,55,47,39,94,75,43,29.84,29.79,29.75,10,10,5,8,3,,0.00,2,,315
2010-10-12,62,55,48,55,49,34,100,79,45,29.94,29.82,29.76,10,8,2,12,4,,0.01,6,,321
2010-10-13,60,48,35,39,35,30,93,72,42,30.07,30.01,29.94,10,10,10,10,7,,0.00,0,,348
2010-10-14,59,47,35,48,42,34,94,85,59,30.05,29.90,29.64,10,10,7,16,3,21,0.50,4,Rain,71
2010-10-15,51,48,44,46,42,39,93,84,62,29.63,29.47,29.36,10,9,4,17,12,28,0.58,8,Rain,321
2010-10-16,53,46,39,39,35,32,81,66,51,29.92,29.70,29.49,10,10,10,24,11,33,0.00,4,,330
2010-10-17,62,50,37,43,35,28,87,66,36,29.92,29.88,29.76,10,10,10,9,3,18,0.00,0,,291
2010-10-18,55,45,35,37,33,30,87,65,41,29.98,29.92,29.88,10,10,10,12,2,18,0.00,1,,311
2010-10-19,57,48,39,43,35,30,87,71,41,29.97,29.95,29.89,10,10,10,9,3,18,0.00,4,,321
2010-10-20,57,46,35,41,38,34,93,72,47,29.97,29.88,29.79,10,10,5,8,1,,0.00,2,,236
2010-10-21,57,50,42,46,40,28,93,79,38,29.78,29.68,29.56,10,5,0,14,4,25,0.00,3,Fog-Rain-Thunderstorm,232
2010-10-22,46,42,37,34,26,25,81,57,49,30.09,30.01,29.88,10,10,10,12,7,23,0.00,3,,290
2010-10-23,59,47,35,37,31,25,71,59,39,30.19,30.12,30.07,10,10,10,12,4,18,0.00,3,,274
2010-10-24,57,50,42,52,46,39,100,85,71,30.20,30.13,30.05,10,9,3,13,3,,0.00,7,Rain,113
2010-10-25,66,58,50,61,53,48,94,88,68,30.06,29.97,29.84,10,5,0,14,4,23,0.00,7,Fog,184
2010-10-26,71,65,59,63,60,57,100,90,60,29.95,29.89,29.82,10,6,0,16,8,22,0.00,7,,205
2010-10-27,69,64,60,66,63,57,100,93,88,29.94,29.90,29.80,10,4,0,15,10,23,0.01,6,Fog-Rain,205
2010-10-28,71,60,46,57,48,27,100,73,27,29.91,29.87,29.77,10,7,0,16,5,26,0.00,3,,293
2010-10-29,51,45,39,37,33,27,81,64,54,30.03,29.95,29.90,10,10,10,14,8,22,0.00,2,,337
2010-10-30,55,44,33,34,28,27,81,57,33,30.08,29.95,29.77,10,10,10,12,4,21,0.00,1,,250
2010-10-31,53,45,35,36,30,21,70,56,43,30.13,29.83,29.71,10,10,10,20,7,28,0.00,2,,285